• Join FlightAware (Why Join?)
  • Login
  • US Flag 
05:03PM EDT


 

Airport Tracker/Info


-or-


 

Live Flight TrackerFlight Track Log ✈ PDT4310 ✈ 20-Jun-2013 ✈ KCLT - KPGV

Flight Track Log - Related Links

Times and Time Zones

All times are in EDT time to prevent confusion due to time zone crossing. See the PDT4310 flight status page for this flight to view local times or setup timezone preferences in your user account.

Time Position Orientation Groundspeed Altitude Reporting Facility
EDT Latitude Longitude Course Direction KTS MPH feet Rate Location/Type
05:34PM 35.2264 -80.9394 90° East 132 152 1,400  Level Atlanta Center
05:35PM 35.2361 -80.9086 69° East 141 162 2,600 1,260 Climbing Atlanta Center
05:36PM 35.2347 -80.8578 92° East 156 180 3,800 1,080 Climbing Atlanta Center
05:37PM 35.1833 -80.5990 90° East  Level FlightAware Approximate
05:37PM 35.2439 -80.8039 78° East 171 197 4,900  Level Atlanta Center
05:38PM 35.1982 -80.5073 73° East  Level FlightAware Approximate
05:38PM 35.2461 -80.7378 88° East 187 215 5,900  Level Atlanta Center
05:38PM 35.2386 -80.6950 102° East 207 238 6,200 660 Climbing Atlanta Center
05:39PM 35.2000 -80.4133 90° East  Level FlightAware Approximate
05:39PM 35.2264 -80.6292 103° East 207 238 7,000  Level Atlanta Center
05:40PM 35.2228 -80.5658 94° East 202 232 8,000 960 Climbing Atlanta Center
05:41PM 35.2186 -80.4975 94° East 202 232 9,000 960 Climbing Atlanta Center
05:42PM 35.2125 -80.4289 96° East 202 232 10,000 1,020 Climbing Atlanta Center
05:43PM 35.2103 -80.3606 92° East 208 239 11,100 1,020 Climbing Atlanta Center
05:44PM 35.2125 -80.2917 88° East 203 234 12,100 900 Climbing Atlanta Center
05:47PM 35.2108 -80.1169 91° East 199 229 14,300 840 Climbing Washington Center
05:48PM 35.2089 -80.0558 92° East 199 229 15,000 300 Climbing Washington Center
05:49PM 35.2078 -79.9719 91° East 212 244 15,000  Level Washington Center
05:50PM 35.2083 -79.9008 89° East 228 262 15,000  Level Washington Center
05:51PM 35.2156 -79.8122 84° East 233 268 15,000  Level Washington Center
05:52PM 35.1844 -79.7497 121° Southeast 228 262 15,000  Level Washington Center
05:53PM 35.1411 -79.6736 125° Southeast 245 282 15,000  Level Washington Center
05:54PM 35.1414 -79.6053 90° East 218 251 15,000  Level Washington Center
05:55PM 35.1592 -79.5144 77° East 230 265 15,000  Level Washington Center
05:56PM 35.1758 -79.4442 74° East 244 281 15,000  Level Washington Center
05:57PM 35.1975 -79.3589 73° East 239 275 15,000  Level Washington Center
05:58PM 35.2167 -79.2758 74° East 239 275 15,000  Level Washington Center
05:59PM 35.2339 -79.1953 75° East 239 275 15,000  Level Washington Center
06:00PM 35.2486 -79.1144 77° East 239 275 15,000  Level Washington Center
06:01PM 35.2678 -79.0339 74° East 239 275 15,000 -60 Level Washington Center
06:02PM 35.2867 -78.9533 74° East 239 275 14,900 -420 Descending Washington Center
06:03PM 35.3058 -78.8703 74° East 246 283 14,200 -720 Descending Washington Center
06:04PM 35.3228 -78.7817 77° East 256 295 13,500 -720 Descending Washington Center
06:04PM 35.3303 -78.7361 79° East 267 307 13,100 -720 Descending Washington Center
06:06PM 35.3578 -78.6356 71° East 266 306 12,300 -720 Descending Washington Center
06:07PM 35.3789 -78.5469 74° East 267 307 11,500 -720 Descending Washington Center
06:08PM 35.4000 -78.4561 74° East 266 306 10,900 -480 Descending Washington Center
06:09PM 35.4206 -78.3703 74° East 252 290 10,600 -540 Descending Washington Center
06:10PM 35.4414 -78.2894 72° East 254 292 9,900 -900 Descending Washington Center
06:11PM 35.4619 -78.2008 74° East 260 299 8,900 -1,020 Descending Washington Center
06:12PM 35.4767 -78.1044 79° East 281 323 7,800 -1,020 Descending Washington Center
06:13PM 35.4911 -78.0156 79° East 275 316 6,800 -1,020 Descending Washington Center
06:14PM 35.5136 -77.9319 72° East 263 303 5,800 -1,020 Descending Washington Center
06:15PM 35.5339 -77.8508 73° East 248 285 4,800 -1,020 Descending Washington Center
06:16PM 35.5519 -77.7722 74° East 242 278 3,800 -1,020 Descending Washington Center
06:17PM 35.5681 -77.6936 76° East 242 278 2,800 -840 Descending Washington Center
06:18PM 35.5861 -77.6150 74° East 242 278 2,200 -600 Descending Washington Center